Time;durP1;ratioP1;P1;durP2;ratioP2;P2;SDS_P1;SDS_P2;PMS_P1;PMS_P2;Temp;Humidity;BMP_temperature;BMP_pressure;BME280_temperature;BME280_humidity;BME280_pressure;Samples;Min_cycle;Max_cycle;Signal;HPM_P1;HPM_P2
2020/12/29 06:34:26;;;;;;;47.13;25.70;;;;;;;1.03;99.39;99919.11;1833869;76;22968;-41
2020/12/29 06:36:54;;;;;;;58.45;29.05;;;;;;;0.99;99.31;99919.86;1737504;80;21137;-42
2020/12/29 06:39:22;;;;;;;46.45;25.75;;;;;;;0.99;99.19;99910.84;1756514;80;21727;-41
2020/12/29 06:41:50;;;;;;;51.05;26.12;;;;;;;1.01;99.13;99901.45;1728203;81;21357;-41
2020/12/29 06:44:17;;;;;;;42.08;23.73;;;;;;;1.01;98.90;99910.47;1701909;79;21613;-40
2020/12/29 06:46:56;;;;;;;41.45;24.98;;;;;;;1.03;98.87;99913.09;1758797;79;21161;-41
2020/12/29 06:49:25;;;;;;;45.05;23.62;;;;;;;1.04;98.81;99911.88;1762288;79;21150;-41
2020/12/29 06:52:20;;;;;;;44.38;22.95;;;;;;;1.07;98.70;99923.96;1757580;79;21568;-41
2020/12/29 06:54:54;;;;;;;43.28;22.65;;;;;;;1.06;98.62;99918.35;1760790;79;21460;-45
2020/12/29 06:57:40;;;;;;;41.05;21.73;;;;;;;1.15;98.65;99928.06;1802867;78;23547;-46
2020/12/29 07:00:16;;;;;;;52.03;25.77;;;;;;;1.11;98.51;99933.55;1761071;79;21623;-46
2020/12/29 07:02:49;;;;;;;53.30;25.95;;;;;;;1.12;98.36;99939.16;1772881;80;21570;-46
2020/12/29 07:05:23;;;;;;;45.70;24.45;;;;;;;1.15;98.43;99922.91;1730506;82;21624;-46
2020/12/29 07:08:00;;;;;;;57.03;25.72;;;;;;;1.19;98.39;99932.50;1742790;81;21170;-45
2020/12/29 07:10:44;;;;;;;48.63;25.23;;;;;;;1.23;98.37;99931.36;1736681;81;21646;-40
2020/12/29 07:13:15;;;;;;;47.50;23.32;;;;;;;1.24;98.20;99928.37;1737502;81;21550;-46
2020/12/29 07:15:53;;;;;;;38.50;21.55;;;;;;;1.27;98.21;99928.44;1718754;81;21183;-40
2020/12/29 07:18:25;;;;;;;35.83;21.52;;;;;;;1.29;98.11;99928.10;1720623;82;21888;-40
2020/12/29 07:20:55;;;;;;;43.95;23.30;;;;;;;1.27;97.94;99921.58;1738959;81;21192;-41
2020/12/29 07:23:25;;;;;;;38.73;20.45;;;;;;;1.26;97.79;99925.41;1733241;81;21584;-45
2020/12/29 07:25:54;;;;;;;35.43;20.55;;;;;;;1.25;97.80;99924.53;1736681;81;21127;-40
2020/12/29 07:28:27;;;;;;;43.55;22.10;;;;;;;1.24;97.83;99922.80;1713679;81;21491;-46
2020/12/29 07:30:56;;;;;;;45.60;22.25;;;;;;;1.25;97.89;99928.82;1737925;81;21684;-40
2020/12/29 07:33:25;;;;;;;35.70;21.52;;;;;;;1.27;97.98;99934.47;1711992;83;21202;-46
2020/12/29 07:35:54;;;;;;;32.60;19.07;;;;;;;1.29;98.00;99928.10;1719968;82;21166;-40
2020/12/29 07:38:23;;;;;;;30.12;17.95;;;;;;;1.32;98.00;99928.17;1740714;81;21589;-46
2020/12/29 07:40:51;;;;;;;26.82;15.90;;;;;;;1.33;97.86;99920.90;1712114;83;21721;-45
2020/12/29 07:43:19;;;;;;;29.70;17.25;;;;;;;1.33;97.81;99919.61;1710510;83;21650;-46
2020/12/29 07:45:47;;;;;;;30.35;17.17;;;;;;;1.33;97.81;99921.80;1732911;81;21194;-45
2020/12/29 07:48:14;;;;;;;27.67;16.48;;;;;;;1.33;97.79;99929.54;1733823;81;21135;-40
2020/12/29 07:59:10;;;;;;;30.60;18.70;;;;;;;1.47;97.99;99913.61;1797966;78;22966;-43
2020/12/29 08:01:54;;;;;;;36.42;19.35;;;;;;;1.45;97.93;99911.38;1771629;79;21118;-47
2020/12/29 08:04:31;;;;;;;29.45;17.20;;;;;;;1.47;97.88;99896.85;1770633;79;21222;-40
2020/12/29 08:07:08;;;;;;;28.17;16.73;;;;;;;1.49;97.88;99890.90;1778062;79;21497;-41
2020/12/29 08:09:46;;;;;;;30.35;16.73;;;;;;;1.52;97.76;99889.72;1774809;78;21188;-41
2020/12/29 08:12:17;;;;;;;29.12;15.70;;;;;;;1.51;97.66;99882.81;1776443;80;21139;-40
2020/12/29 08:14:45;;;;;;;28.05;14.90;;;;;;;1.53;97.61;99875.98;1776639;79;21581;-46
2020/12/29 08:17:14;;;;;;;26.97;14.50;;;;;;;1.53;97.61;99884.14;1776276;79;21148;-45
2020/12/29 08:19:42;;;;;;;28.10;16.10;;;;;;;1.54;97.67;99884.17;1776592;80;21485;-45
2020/12/29 08:22:11;;;;;;;32.95;14.28;;;;;;;1.55;97.64;99882.05;1778562;80;21902;-44
2020/12/29 08:24:39;;;;;;;29.70;15.63;;;;;;;1.53;97.57;99886.30;1776501;80;21111;-45
2020/12/29 08:27:07;;;;;;;32.15;15.10;;;;;;;1.52;97.66;99878.53;1778269;79;21927;-45
2020/12/29 08:29:35;;;;;;;27.55;15.65;;;;;;;1.53;97.79;99878.98;1775214;80;21303;-45
2020/12/29 08:32:09;;;;;;;25.25;15.43;;;;;;;1.55;97.90;99874.73;1775033;79;21285;-45
2020/12/29 08:34:38;;;;;;;22.67;13.83;;;;;;;1.59;98.04;99875.30;1777568;80;21587;-45
2020/12/29 08:37:08;;;;;;;25.97;15.38;;;;;;;1.64;98.04;99862.13;1749051;80;21156;-45
2020/12/29 08:40:02;;;;;;;24.10;13.50;;;;;;;1.67;98.12;99871.22;1772859;80;21174;-45
2020/12/29 08:42:36;;;;;;;30.65;14.18;;;;;;;1.71;98.08;99868.33;1775192;80;21639;-45
2020/12/29 08:49:10;;;;;;;21.12;13.18;;;;;;;1.76;97.97;99844.41;1771526;79;21482;-40
2020/12/29 08:52:38;;;;;;;22.50;12.88;;;;;;;1.79;97.93;99857.38;1782273;79;21968;-44
2020/12/29 08:56:49;;;;;;;25.32;13.58;;;;;;;1.80;97.80;99855.28;1773502;79;21687;-46
2020/12/29 09:00:18;;;;;;;20.35;11.70;;;;;;;1.83;97.85;99849.32;1772386;79;21299;-47
2020/12/29 09:03:35;;;;;;;21.80;13.55;;;;;;;1.88;97.92;99861.94;1770589;78;21296;-42
2020/12/29 09:10:16;;;;;;;28.27;13.75;;;;;;;1.91;97.91;99843.94;1768083;79;21323;-44
2020/12/29 09:12:44;;;;;;;23.02;12.65;;;;;;;1.94;98.03;99859.94;1770555;79;21432;-45
2020/12/29 09:15:13;;;;;;;21.20;12.68;;;;;;;1.96;98.05;99856.55;1763892;79;21134;-48
2020/12/29 09:17:46;;;;;;;24.77;14.45;;;;;;;1.99;98.12;99841.59;1715070;81;21184;-48
2020/12/29 09:20:22;;;;;;;20.43;12.47;;;;;;;2.03;98.07;99838.24;1694845;82;21829;-41
2020/12/29 09:22:55;;;;;;;;;;;;;;;2.05;98.02;99832.73;1722110;83;22304;-46
2020/12/29 09:25:28;;;;;;;;;;;;;;;2.07;97.92;99822.02;1741931;81;20187;-46
2020/12/29 09:28:20;;;;;;;21.00;11.65;;;;;;;2.07;97.97;99836.21;1746385;81;20209;-45
2020/12/29 09:31:05;;;;;;;20.50;12.75;;;;;;;2.10;98.12;99840.18;1735498;81;21836;-41
2020/12/29 09:33:38;;;;;;;31.15;15.80;;;;;;;2.12;98.15;99846.24;1742381;81;21292;-41
2020/12/29 09:36:20;;;;;;;22.87;13.15;;;;;;;2.17;98.10;99827.02;1712469;83;21224;-41
2020/12/29 09:38:49;;;;;;;34.78;16.70;;;;;;;2.19;98.10;99836.95;1718676;81;21845;-45
2020/12/29 09:41:17;;;;;;;31.37;16.05;;;;;;;2.22;98.12;99832.75;1739048;81;21304;-45
2020/12/29 09:43:48;;;;;;;22.82;12.70;;;;;;;2.27;98.25;99844.50;1744971;81;21159;-45
2020/12/29 09:46:26;;;;;;;25.45;13.83;;;;;;;2.32;98.25;99824.81;1733858;81;21186;-45
2020/12/29 09:49:18;;;;;;;24.20;14.23;;;;;;;2.38;98.30;99824.99;1724195;82;21139;-46
2020/12/29 09:56:36;;;;;;;21.55;12.75;;;;;;;2.55;98.41;99807.31;1720811;82;21965;-44
2020/12/29 09:59:06;;;;;;;22.95;13.72;;;;;;;2.63;98.29;99800.63;1715581;82;21191;-47
2020/12/29 10:01:46;;;;;;;23.22;13.30;;;;;;;2.68;98.29;99798.17;1711443;82;21673;-47
2020/12/29 10:04:14;;;;;;;25.05;13.48;;;;;;;2.74;98.34;99791.86;1712736;82;21205;-45
2020/12/29 10:06:42;;;;;;;23.00;14.38;;;;;;;2.81;98.34;99780.81;1708978;83;21473;-46
2020/12/29 10:09:10;;;;;;;24.63;13.60;;;;;;;2.88;98.32;99784.86;1708871;83;21219;-47
2020/12/29 10:11:38;;;;;;;28.15;14.53;;;;;;;2.92;98.16;99768.59;1714906;83;21182;-46
2020/12/29 10:14:06;;;;;;;21.77;11.97;;;;;;;2.96;97.97;99778.59;1712017;83;21186;-46
2020/12/29 10:16:34;;;;;;;24.20;12.98;;;;;;;2.99;97.85;99775.19;1712041;81;21159;-46
2020/12/29 10:19:01;;;;;;;28.90;14.58;;;;;;;3.02;97.78;99767.52;1717331;82;21153;-46
2020/12/29 10:21:30;;;;;;;21.33;13.03;;;;;;;3.02;97.64;99767.09;1713974;82;21203;-40
2020/12/29 10:24:01;;;;;;;23.18;13.13;;;;;;;3.04;97.59;99765.41;1687303;84;21318;-45
2020/12/29 10:26:30;;;;;;;26.57;15.05;;;;;;;3.05;97.44;99765.85;1686567;84;21196;-45
2020/12/29 10:29:02;;;;;;;30.72;16.70;;;;;;;3.06;97.30;99752.50;1691912;84;21200;-40
2020/12/29 10:31:41;;;;;;;23.00;13.95;;;;;;;3.07;97.33;99745.20;1693101;82;21549;-40
2020/12/29 10:35:07;;;;;;;21.25;12.55;;;;;;;3.09;97.46;99756.46;1688698;84;21415;-45
2020/12/29 10:38:31;;;;;;;27.25;13.95;;;;;;;3.11;97.46;99754.77;1712078;82;21716;-40
2020/12/29 10:40:59;;;;;;;23.47;14.10;;;;;;;3.14;97.72;99736.33;1689253;84;21152;-46
2020/12/29 10:43:27;;;;;;;26.87;14.18;;;;;;;3.17;97.83;99729.92;1691802;84;21173;-40
2020/12/29 10:45:55;;;;;;;25.25;13.25;;;;;;;3.22;98.01;99726.56;1691688;84;21183;-42
2020/12/29 10:48:41;;;;;;;24.85;13.85;;;;;;;3.25;98.04;99717.17;1685437;84;21181;-48
2020/12/29 10:52:58;;;;;;;28.45;13.70;;;;;;;3.29;98.16;99709.03;1697012;83;21230;-42
2020/12/29 10:56:23;;;;;;;30.15;15.10;;;;;;;3.36;98.28;99709.59;1713194;82;21434;-39
2020/12/29 10:58:51;;;;;;;41.20;18.05;;;;;;;3.42;98.43;99718.77;1710774;82;21182;-38
2020/12/29 11:01:22;;;;;;;35.88;17.70;;;;;;;3.45;98.42;99694.27;1723929;81;21419;-40
2020/12/29 11:03:55;;;;;;;39.03;16.30;;;;;;;3.48;98.35;99681.41;1696560;83;21196;-41
2020/12/29 11:06:35;;;;;;;30.85;15.93;;;;;;;3.50;98.29;99661.61;1699149;83;21427;-42
2020/12/29 11:09:05;;;;;;;36.38;16.65;;;;;;;3.53;98.22;99650.43;1700965;83;21651;-47
2020/12/29 11:11:34;;;;;;;36.28;17.23;;;;;;;3.52;98.07;99657.33;1701074;83;21646;-40
2020/12/29 11:14:02;;;;;;;24.10;13.53;;;;;;;3.53;98.08;99646.12;1725253;81;21176;-45
2020/12/29 11:16:30;;;;;;;26.15;14.83;;;;;;;3.55;98.07;99661.28;1760718;80;21163;-42
2020/12/29 11:19:01;;;;;;;24.20;14.03;;;;;;;3.57;98.14;99658.70;1760170;80;21169;-45
2020/12/29 11:21:35;;;;;;;25.50;15.45;;;;;;;3.58;98.18;99655.27;1695833;80;21175;-39
2020/12/29 11:24:06;;;;;;;29.15;14.85;;;;;;;3.59;98.23;99659.59;1759836;80;21189;-46
2020/12/29 11:26:39;;;;;;;27.90;15.85;;;;;;;3.60;98.39;99626.02;1759469;80;21223;-46
2020/12/29 11:29:16;;;;;;;27.17;15.32;;;;;;;3.63;98.49;99633.81;1735972;80;21173;-42
2020/12/29 11:31:47;;;;;;;25.57;14.05;;;;;;;3.66;98.54;99636.47;1762016;80;21207;-41
2020/12/29 11:34:20;;;;;;;28.30;16.50;;;;;;;3.70;98.63;99638.23;1762767;80;21198;-40
2020/12/29 11:36:54;;;;;;;23.02;15.28;;;;;;;3.72;98.70;99643.04;1758427;80;21165;-44
2020/12/29 11:39:37;;;;;;;25.25;14.95;;;;;;;3.77;98.76;99642.22;1764717;80;21687;-40
2020/12/29 11:42:09;;;;;;;31.40;16.73;;;;;;;3.79;98.71;99640.55;1733269;80;21642;-41
2020/12/29 11:44:39;;;;;;;28.75;17.07;;;;;;;3.81;98.73;99647.91;1762886;80;21315;-44
2020/12/29 11:47:07;;;;;;;25.37;15.15;;;;;;;3.83;98.68;99654.00;1764413;80;21185;-40
2020/12/29 11:49:36;;;;;;;27.37;16.00;;;;;;;3.85;98.69;99657.48;1764228;80;21179;-45
2020/12/29 11:52:04;;;;;;;31.33;17.62;;;;;;;3.88;98.74;99659.67;1758106;80;21146;-40
2020/12/29 11:54:34;;;;;;;26.80;16.00;;;;;;;3.93;98.81;99668.39;1765600;80;21175;-43
2020/12/29 11:57:03;;;;;;;33.85;17.25;;;;;;;3.98;98.84;99671.92;1754368;80;21150;-45
2020/12/29 11:59:31;;;;;;;27.50;15.88;;;;;;;4.03;98.86;99678.48;1759962;80;21495;-46
2020/12/29 12:02:00;;;;;;;28.05;16.50;;;;;;;4.09;98.89;99675.13;1749212;80;22160;-40
2020/12/29 12:04:29;;;;;;;32.67;17.75;;;;;;;4.17;99.10;99686.46;1748220;81;21951;-39
2020/12/29 12:06:59;;;;;;;32.17;18.00;;;;;;;4.23;99.19;99671.02;1745849;81;21574;-44
2020/12/29 12:09:27;;;;;;;30.90;17.85;;;;;;;4.30;99.24;99692.73;1739391;81;21646;-44
2020/12/29 12:11:58;;;;;;;38.13;18.55;;;;;;;4.38;99.39;99686.80;1755705;81;21476;-45
2020/12/29 12:14:27;;;;;;;30.68;17.27;;;;;;;4.46;99.46;99689.50;1751014;81;21641;-44
2020/12/29 12:16:55;;;;;;;32.55;17.90;;;;;;;4.52;99.50;99684.02;1753228;81;21313;-44
2020/12/29 12:19:22;;;;;;;29.18;16.50;;;;;;;4.58;99.48;99696.58;1748907;81;21202;-44
2020/12/29 12:21:51;;;;;;;35.92;18.67;;;;;;;4.63;99.51;99675.07;1753187;81;21434;-44
2020/12/29 12:24:19;;;;;;;29.23;16.73;;;;;;;4.69;99.47;99681.63;1752895;81;21183;-44
2020/12/29 12:26:47;;;;;;;34.60;19.27;;;;;;;4.74;99.42;99664.86;1742454;82;21171;-44
2020/12/29 12:29:15;;;;;;;34.70;18.80;;;;;;;4.79;99.49;99673.14;1752922;82;21195;-41
2020/12/29 12:31:43;;;;;;;40.65;21.90;;;;;;;4.84;99.29;99664.13;1761891;81;21739;-44
2020/12/29 12:34:11;;;;;;;30.35;16.60;;;;;;;4.87;99.13;99660.70;1743998;80;21466;-44
2020/12/29 12:36:39;;;;;;;30.77;17.42;;;;;;;4.88;98.94;99659.88;1739214;80;21163;-39
2020/12/29 12:39:07;;;;;;;34.80;19.07;;;;;;;4.89;98.84;99670.68;1749099;82;21157;-44
2020/12/29 12:41:35;;;;;;;30.08;18.42;;;;;;;4.88;98.94;99651.67;1754094;82;21162;-44
2020/12/29 12:44:03;;;;;;;35.20;19.42;;;;;;;4.90;98.98;99663.34;1744631;82;21184;-44
2020/12/29 12:46:33;;;;;;;31.60;17.73;;;;;;;4.91;99.06;99666.37;1741771;82;21231;-40
2020/12/29 12:49:01;;;;;;;34.55;19.92;;;;;;;4.92;99.15;99671.57;1748456;82;21178;-39
2020/12/29 12:51:29;;;;;;;33.98;20.52;;;;;;;4.94;99.19;99674.20;1755126;82;21247;-44
2020/12/29 12:53:57;;;;;;;34.50;19.52;;;;;;;4.95;99.26;99680.70;1752903;82;21179;-44
2020/12/29 12:56:28;;;;;;;40.12;21.27;;;;;;;4.99;99.33;99680.33;1745858;82;21187;-39
2020/12/29 12:58:55;;;;;;;33.48;19.95;;;;;;;5.03;99.36;99675.60;1755226;81;21167;-40
2020/12/29 13:01:24;;;;;;;33.05;20.88;;;;;;;5.08;99.54;99681.72;1749277;80;21229;-39
2020/12/29 13:03:52;;;;;;;31.97;20.15;;;;;;;5.14;99.65;99675.73;1751764;80;21177;-40
2020/12/29 13:06:24;;;;;;;38.95;22.45;;;;;;;5.16;99.62;99674.92;1748585;80;21669;-44
2020/12/29 13:08:53;;;;;;;37.45;21.07;;;;;;;5.20;99.61;99680.99;1760110;81;21619;-40
2020/12/29 13:11:21;;;;;;;33.33;21.68;;;;;;;5.23;99.51;99690.13;1760362;81;21210;-45
2020/12/29 13:13:50;;;;;;;32.88;19.62;;;;;;;5.26;99.45;99677.17;1750835;81;21222;-40
2020/12/29 13:16:22;;;;;;;35.43;20.55;;;;;;;5.29;99.41;99687.60;1755452;81;21166;-44
2020/12/29 13:18:56;;;;;;;35.30;19.98;;;;;;;5.32;99.39;99697.56;1735264;81;21147;-42
2020/12/29 13:21:24;;;;;;;36.90;20.90;;;;;;;5.34;99.35;99699.77;1737074;81;21171;-42
2020/12/29 13:23:53;;;;;;;34.50;19.23;;;;;;;5.38;99.35;99686.82;1751812;81;21180;-42
2020/12/29 13:26:22;;;;;;;38.23;21.93;;;;;;;5.41;99.33;99690.76;1760266;80;21325;-39
2020/12/29 13:28:52;;;;;;;35.70;20.55;;;;;;;5.43;99.31;99704.18;1756873;81;21155;-42
2020/12/29 13:31:22;;;;;;;34.98;20.10;;;;;;;5.47;99.25;99694.29;1760659;80;21658;-39
2020/12/29 13:33:55;;;;;;;31.93;20.92;;;;;;;5.51;99.33;99706.45;1753862;81;21641;-44
2020/12/29 13:36:25;;;;;;;33.20;21.00;;;;;;;5.53;99.29;99700.84;1757390;81;21178;-45
2020/12/29 13:38:53;;;;;;;36.48;20.25;;;;;;;5.56;99.34;99702.16;1745104;81;21641;-44
2020/12/29 13:41:23;;;;;;;33.18;19.60;;;;;;;5.61;99.36;99678.85;1730317;82;21233;-40
2020/12/29 13:43:50;;;;;;;34.00;20.17;;;;;;;5.66;99.37;99691.45;1736135;80;21556;-40
2020/12/29 13:46:18;;;;;;;33.53;20.05;;;;;;;5.69;99.25;99695.82;1725817;82;21594;-42
2020/12/29 13:48:46;;;;;;;33.33;20.50;;;;;;;5.70;99.13;99690.64;1696252;84;21200;-45
2020/12/29 13:51:16;;;;;;;40.40;21.15;;;;;;;5.74;99.08;99691.52;1685403;84;21176;-45
2020/12/29 13:53:44;;;;;;;30.90;18.98;;;;;;;5.77;99.08;99690.27;1699018;84;21148;-45
2020/12/29 13:56:16;;;;;;;32.93;18.20;;;;;;;5.80;99.12;99692.48;1707109;82;21671;-45
2020/12/29 13:58:44;;;;;;;34.83;18.92;;;;;;;5.86;99.26;99687.34;1704196;82;21159;-45
2020/12/29 14:01:13;;;;;;;32.33;20.43;;;;;;;5.93;99.40;99694.78;1709321;83;21202;-45
2020/12/29 14:03:42;;;;;;;28.10;16.55;;;;;;;5.99;99.37;99693.97;1670495;84;21174;-40
2020/12/29 14:06:13;;;;;;;31.40;18.32;;;;;;;6.04;99.31;99703.55;1703089;84;21955;-43
2020/12/29 14:08:41;;;;;;;35.10;19.73;;;;;;;6.10;99.24;99704.03;1683772;84;21557;-45
2020/12/29 14:11:09;;;;;;;34.45;19.05;;;;;;;6.15;99.18;99710.14;1690711;84;21240;-39
2020/12/29 14:13:37;;;;;;;33.38;18.37;;;;;;;6.19;98.96;99714.91;1693368;82;21179;-45
2020/12/29 14:16:05;;;;;;;36.03;20.27;;;;;;;6.22;98.94;99709.33;1704044;84;22693;-39
2020/12/29 14:18:33;;;;;;;34.38;19.00;;;;;;;6.27;98.88;99705.04;1699986;84;21199;-40
2020/12/29 14:21:02;;;;;;;26.77;17.42;;;;;;;6.32;98.67;99702.05;1696301;84;21172;-40
2020/12/29 14:23:30;;;;;;;29.35;16.87;;;;;;;6.35;98.48;99709.85;1688637;84;21722;-39
2020/12/29 14:25:58;;;;;;;28.40;16.82;;;;;;;6.38;98.24;99710.33;1689087;84;21387;-40
2020/12/29 14:28:29;;;;;;;26.42;16.32;;;;;;;6.40;98.17;99709.89;1698655;82;21147;-40
2020/12/29 14:31:02;;;;;;;29.72;16.17;;;;;;;6.44;98.10;99708.20;1662683;84;21170;-39
2020/12/29 14:33:30;;;;;;;28.15;16.32;;;;;;;6.48;98.26;99710.81;1667575;84;21203;-39
2020/12/29 14:36:05;;;;;;;25.80;15.38;;;;;;;6.54;98.21;99713.88;1704291;84;21721;-42
2020/12/29 14:38:35;;;;;;;32.63;16.60;;;;;;;6.58;98.17;99708.72;1687253;84;21215;-38
2020/12/29 14:41:03;;;;;;;31.57;16.52;;;;;;;6.64;98.05;99709.19;1698132;84;21633;-43
2020/12/29 14:43:31;;;;;;;26.30;15.78;;;;;;;6.66;97.92;99712.23;1684866;84;21166;-43
2020/12/29 14:46:00;;;;;;;29.40;18.20;;;;;;;6.69;97.79;99715.30;1675307;85;21670;-38
2020/12/29 14:48:28;;;;;;;26.70;16.42;;;;;;;6.71;97.70;99718.77;1742891;82;21135;-38
2020/12/29 14:50:56;;;;;;;21.00;14.43;;;;;;;6.74;97.69;99716.20;1749299;82;21183;-43
2020/12/29 14:53:24;;;;;;;24.35;15.48;;;;;;;6.76;97.64;99711.86;1748927;82;21459;-43
2020/12/29 14:55:52;;;;;;;25.92;16.12;;;;;;;6.82;97.56;99713.63;1740927;82;21684;-44
2020/12/29 14:58:21;;;;;;;20.95;13.83;;;;;;;6.84;97.43;99723.60;1719116;81;21198;-43
2020/12/29 15:00:49;;;;;;;25.85;16.05;;;;;;;6.86;97.35;99744.00;1741727;82;21222;-44
2020/12/29 15:03:17;;;;;;;29.50;15.58;;;;;;;6.88;97.24;99745.74;1709759;83;21175;-38
2020/12/29 15:05:45;;;;;;;27.20;15.48;;;;;;;6.91;97.18;99739.70;1706699;83;21256;-43
2020/12/29 15:08:13;;;;;;;29.77;16.07;;;;;;;6.92;97.10;99737.11;1720049;83;21218;-39
2020/12/29 15:10:42;;;;;;;25.48;16.05;;;;;;;6.94;97.02;99738.41;1716127;83;21313;-38
2020/12/29 15:13:10;;;;;;;28.05;16.97;;;;;;;6.96;96.85;99741.01;1709115;83;21698;-39
2020/12/29 15:15:38;;;;;;;26.52;15.53;;;;;;;6.97;96.74;99747.98;1719767;83;21200;-38
2020/12/29 15:18:06;;;;;;;25.15;15.48;;;;;;;6.97;96.71;99749.28;1720285;83;21499;-43
2020/12/29 15:20:34;;;;;;;27.30;16.67;;;;;;;6.97;96.68;99751.88;1718456;83;21212;-39
2020/12/29 15:23:02;;;;;;;28.17;16.20;;;;;;;6.98;96.63;99749.71;1716500;83;21190;-38
2020/12/29 15:25:30;;;;;;;26.30;15.75;;;;;;;6.97;96.67;99759.25;1721828;83;21633;-38
2020/12/29 15:27:58;;;;;;;28.15;15.88;;;;;;;7.00;96.72;99759.69;1714848;83;21155;-38
2020/12/29 15:30:26;;;;;;;26.27;16.05;;;;;;;7.02;96.81;99751.48;1730064;83;21608;-39
2020/12/29 15:32:54;;;;;;;24.02;15.30;;;;;;;7.04;96.83;99762.31;1734251;83;21630;-38
2020/12/29 15:35:21;;;;;;;24.70;14.63;;;;;;;7.06;96.87;99752.78;1712303;82;21147;-39
2020/12/29 15:37:49;;;;;;;27.58;14.68;;;;;;;7.10;96.96;99738.07;1719542;83;21158;-39
2020/12/29 15:40:17;;;;;;;32.93;15.95;;;;;;;7.13;96.90;99754.98;1707278;83;21170;-42
2020/12/29 15:42:45;;;;;;;22.82;14.93;;;;;;;7.16;96.86;99756.31;1704195;84;21246;-39
2020/12/29 15:45:13;;;;;;;33.25;15.40;;;;;;;7.20;96.88;99755.47;1714236;83;21337;-42
2020/12/29 15:47:41;;;;;;;29.80;15.93;;;;;;;7.22;96.80;99751.57;1716771;83;21198;-43
2020/12/29 15:50:08;;;;;;;30.62;14.78;;;;;;;7.24;96.82;99754.60;1727464;83;21150;-39
2020/12/29 15:52:36;;;;;;;23.42;14.73;;;;;;;7.26;96.77;99764.61;1733438;83;21166;-38
2020/12/29 15:55:04;;;;;;;22.48;14.47;;;;;;;7.27;96.68;99757.23;1733286;83;21163;-39
2020/12/29 15:57:32;;;;;;;27.80;16.25;;;;;;;7.29;96.62;99757.23;1731270;83;21144;-38
2020/12/29 16:00:00;;;;;;;28.40;16.17;;;;;;;7.32;96.61;99767.67;1730081;82;21587;-43
2020/12/29 16:02:28;;;;;;;29.55;15.25;;;;;;;7.31;96.53;99759.00;1736566;82;21167;-43
2020/12/29 16:04:56;;;;;;;32.08;16.25;;;;;;;7.33;96.58;99760.30;1692208;83;21148;-43
2020/12/29 16:07:24;;;;;;;29.18;15.38;;;;;;;7.33;96.48;99768.97;1689344;83;21215;-39
2020/12/29 16:09:52;;;;;;;26.85;14.58;;;;;;;7.35;96.48;99776.78;1696090;83;21148;-44
2020/12/29 16:12:20;;;;;;;23.83;16.07;;;;;;;7.37;96.39;99784.19;1701252;83;21335;-39
2020/12/29 16:14:48;;;;;;;23.85;15.53;;;;;;;7.37;96.35;99797.20;1696637;83;21187;-43
2020/12/29 16:17:16;;;;;;;24.45;15.60;;;;;;;7.38;96.31;99802.41;1699923;83;21225;-43
2020/12/29 16:19:45;;;;;;;28.50;16.02;;;;;;;7.40;96.20;99795.89;1714148;83;21142;-44
2020/12/29 16:22:13;;;;;;;28.25;16.10;;;;;;;7.41;96.20;99795.02;1717620;83;21167;-44
2020/12/29 16:24:42;;;;;;;26.33;15.60;;;;;;;7.41;96.14;99798.49;1701273;83;21191;-43
2020/12/29 16:27:11;;;;;;;29.85;14.98;;;;;;;7.43;96.15;99803.30;1702313;83;21784;-38
2020/12/29 16:29:44;;;;;;;28.92;15.30;;;;;;;7.45;96.14;99798.95;1699024;83;21195;-43
2020/12/29 16:32:19;;;;;;;24.40;16.25;;;;;;;7.46;96.09;99800.69;1764390;80;21119;-39
2020/12/29 16:34:50;;;;;;;32.70;15.98;;;;;;;7.47;96.07;99793.31;1755360;80;21155;-39
2020/12/29 16:37:18;;;;;;;30.60;14.45;;;;;;;7.50;96.10;99794.21;1753792;80;21175;-39
2020/12/29 16:39:46;;;;;;;27.42;15.58;;;;;;;7.52;96.08;99792.48;1767686;80;21162;-41
2020/12/29 16:42:14;;;;;;;23.50;14.47;;;;;;;7.53;96.06;99789.88;1758580;80;21147;-42
2020/12/29 16:44:45;;;;;;;27.48;14.63;;;;;;;7.55;96.21;99784.26;1760462;80;21116;-39
2020/12/29 16:47:15;;;;;;;30.70;14.23;;;;;;;7.58;96.16;99786.86;1763215;80;21190;-40
2020/12/29 16:49:43;;;;;;;26.20;14.53;;;;;;;7.62;96.23;99787.75;1770602;80;21159;-44
2020/12/29 16:52:11;;;;;;;31.70;13.88;;;;;;;7.65;96.25;99791.25;1752450;80;21199;-39
2020/12/29 16:54:40;;;;;;;27.32;13.43;;;;;;;7.70;96.33;99796.45;1753425;80;21669;-39
2020/12/29 16:57:10;;;;;;;29.30;14.78;;;;;;;7.74;96.14;99794.30;1765863;80;21163;-44
2020/12/29 16:59:38;;;;;;;32.95;13.25;;;;;;;7.77;96.03;99799.94;1752657;80;21284;-42
2020/12/29 17:02:06;;;;;;;31.85;14.73;;;;;;;7.79;95.94;99802.14;1758625;80;21185;-39
2020/12/29 17:04:35;;;;;;;29.77;12.80;;;;;;;7.82;95.94;99804.30;1762074;81;21177;-40
2020/12/29 17:07:03;;;;;;;24.70;12.70;;;;;;;7.84;95.81;99801.30;1743890;81;21232;-45
2020/12/29 17:09:36;;;;;;;25.77;12.45;;;;;;;7.85;95.70;99805.63;1764754;81;21143;-45
2020/12/29 17:12:12;;;;;;;26.85;12.47;;;;;;;7.87;95.54;99807.80;1776481;80;21179;-38
2020/12/29 17:14:40;;;;;;;29.95;12.80;;;;;;;7.88;95.44;99813.44;1763734;81;21162;-39
2020/12/29 17:17:08;;;;;;;25.08;11.55;;;;;;;7.89;95.40;99811.73;1760224;81;21111;-43
2020/12/29 17:19:36;;;;;;;21.42;11.80;;;;;;;7.89;95.44;99821.72;1745609;81;21165;-38
2020/12/29 17:22:04;;;;;;;29.02;11.90;;;;;;;7.92;95.36;99828.66;1749916;81;21648;-38
2020/12/29 17:24:31;;;;;;;24.92;11.85;;;;;;;7.92;95.31;99825.61;1697950;84;21339;-44
2020/12/29 17:27:06;;;;;;;31.65;11.93;;;;;;;7.94;95.23;99830.82;1698269;84;21196;-39
2020/12/29 17:29:34;;;;;;;25.97;11.80;;;;;;;7.93;95.12;99813.45;1697842;83;21185;-44
2020/12/29 17:32:03;;;;;;;21.73;10.85;;;;;;;7.92;95.07;99825.61;1698062;84;21192;-44
2020/12/29 17:34:31;;;;;;;20.32;12.10;;;;;;;7.92;95.02;99827.35;1720780;83;21182;-43
2020/12/29 17:36:58;;;;;;;24.37;12.10;;;;;;;7.91;95.11;99834.30;1719629;82;21237;-43
2020/12/29 17:39:28;;;;;;;27.75;12.13;;;;;;;7.93;95.18;99836.90;1708304;83;21293;-38
2020/12/29 17:41:56;;;;;;;29.92;12.55;;;;;;;7.94;95.15;99839.94;1704646;84;21197;-44
2020/12/29 17:44:24;;;;;;;25.50;11.28;;;;;;;7.94;95.15;99844.74;1725342;83;21532;-39
2020/12/29 17:46:55;;;;;;;32.08;12.58;;;;;;;7.95;95.20;99846.91;1727201;82;21209;-39
2020/12/29 17:49:23;;;;;;;28.98;13.08;;;;;;;7.98;95.18;99843.00;1712681;83;21150;-44
2020/12/29 17:51:55;;;;;;;29.37;12.00;;;;;;;8.00;95.26;99853.88;1703711;84;21177;-40
2020/12/29 17:54:22;;;;;;;21.48;10.95;;;;;;;8.02;95.21;99855.62;1698022;83;21690;-39
2020/12/29 17:56:50;;;;;;;34.70;13.68;;;;;;;8.03;95.19;99863.43;1698153;84;21752;-44
2020/12/29 17:59:19;;;;;;;32.53;12.28;;;;;;;8.05;95.14;99869.50;1697965;84;21141;-39
2020/12/29 18:01:47;;;;;;;32.58;13.43;;;;;;;8.08;95.09;99877.78;1695705;83;21184;-40
2020/12/29 18:04:15;;;;;;;33.15;12.80;;;;;;;8.10;95.08;99879.95;1727641;82;21175;-39
2020/12/29 18:06:43;;;;;;;34.40;12.93;;;;;;;8.12;95.07;99882.15;1689250;85;21637;-44
2020/12/29 18:09:11;;;;;;;32.23;12.78;;;;;;;8.12;94.92;99880.41;1694696;84;21197;-39
